GLO1200 SBSP-SBFL
Flight info
| Callsign | GLO1200 |
|---|---|
| Flight time | 0h 53m |
| Altitude | 30000 |
| Route | MADNI UZ92 PUBIS |
| Aircraft | B738/M-SDFGIKLORWXY/LB1 |
Departure
| Time | 2026-05-05 09:34 |
|---|---|
| Airport | Congonhas–Deputado Freitas Nobre Airport (SBSP) |
Arrival
| Time | 2026-05-05 10:27 |
|---|---|
| Airport | Hercílio Luz International Airport (SBFL) |
| Time | Latitude | Longitude | Altitude | Speed | Heading |
|---|---|---|---|---|---|
| 2026-05-05 09:32 | -23.63440 | -46.65254 | 2668 ft | 17 kts | 148° |
| 2026-05-05 09:32 | -23.63485 | -46.65153 | 2664 ft | 17 kts | 46° |
| 2026-05-05 09:33 | -23.63391 | -46.65146 | 2669 ft | 12 kts | 331° |
| 2026-05-05 09:33 | -23.63355 | -46.65171 | 2671 ft | 15 kts | 327° |
| 2026-05-05 09:33 | -23.63029 | -46.65394 | 2674 ft | 93 kts | 327° |
| 2026-05-05 09:33 | -23.62271 | -46.65919 | 2639 ft | 161 kts | 327° |
| 2026-05-05 09:34 | -23.61282 | -46.66645 | 3164 ft | 170 kts | 329° |
| 2026-05-05 09:34 | -23.60303 | -46.67320 | 3920 ft | 173 kts | 329° |
| 2026-05-05 09:34 | -23.59378 | -46.68172 | 4465 ft | 183 kts | 302° |
| 2026-05-05 09:34 | -23.59017 | -46.69546 | 4899 ft | 197 kts | 278° |
| 2026-05-05 09:35 | -23.58790 | -46.71079 | 5316 ft | 213 kts | 284° |
| 2026-05-05 09:35 | -23.57899 | -46.74380 | 6402 ft | 239 kts | 288° |
| 2026-05-05 09:35 | -23.57403 | -46.76110 | 7141 ft | 243 kts | 287° |
| 2026-05-05 09:36 | -23.57201 | -46.77983 | 7599 ft | 260 kts | 261° |
| 2026-05-05 09:36 | -23.57891 | -46.79837 | 7722 ft | 274 kts | 232° |
| 2026-05-05 09:36 | -23.59389 | -46.81179 | 7724 ft | 282 kts | 208° |
| 2026-05-05 09:36 | -23.61148 | -46.82139 | 7715 ft | 281 kts | 213° |
| 2026-05-05 09:37 | -23.62567 | -46.83562 | 7729 ft | 280 kts | 233° |
| 2026-05-05 09:37 | -23.63840 | -46.85223 | 7783 ft | 292 kts | 223° |
| 2026-05-05 09:37 | -23.65526 | -46.86404 | 8730 ft | 288 kts | 206° |
| 2026-05-05 09:37 | -23.67343 | -46.87270 | 9588 ft | 287 kts | 203° |
| 2026-05-05 09:38 | -23.69198 | -46.88106 | 10356 ft | 289 kts | 204° |
| 2026-05-05 09:38 | -23.71051 | -46.88987 | 10890 ft | 300 kts | 205° |
| 2026-05-05 09:38 | -23.73006 | -46.89970 | 11330 ft | 315 kts | 206° |
| 2026-05-05 09:38 | -23.75040 | -46.91025 | 11794 ft | 329 kts | 206° |
| 2026-05-05 09:39 | -23.77160 | -46.91967 | 12440 ft | 334 kts | 198° |
| 2026-05-05 09:39 | -23.79439 | -46.92489 | 13144 ft | 339 kts | 188° |
| 2026-05-05 09:39 | -23.81794 | -46.92729 | 13888 ft | 342 kts | 185° |
| 2026-05-05 09:39 | -23.84200 | -46.92884 | 14641 ft | 345 kts | 184° |
| 2026-05-05 09:40 | -23.86602 | -46.93045 | 15391 ft | 348 kts | 185° |
| 2026-05-05 09:40 | -23.89021 | -46.93242 | 16131 ft | 351 kts | 186° |
| 2026-05-05 09:40 | -23.91465 | -46.93473 | 16852 ft | 354 kts | 186° |
| 2026-05-05 09:40 | -23.93924 | -46.93726 | 17590 ft | 356 kts | 187° |
| 2026-05-05 09:41 | -23.96386 | -46.93990 | 18312 ft | 358 kts | 187° |
| 2026-05-05 09:41 | -23.98878 | -46.94259 | 18973 ft | 361 kts | 186° |
| 2026-05-05 09:41 | -24.01399 | -46.94532 | 19632 ft | 365 kts | 186° |
| 2026-05-05 09:41 | -24.03919 | -46.94803 | 20341 ft | 366 kts | 186° |
| 2026-05-05 09:42 | -24.06452 | -46.95074 | 20973 ft | 369 kts | 186° |
| 2026-05-05 09:42 | -24.09034 | -46.95349 | 21609 ft | 371 kts | 186° |
| 2026-05-05 09:42 | -24.11603 | -46.95624 | 22168 ft | 375 kts | 186° |
| 2026-05-05 09:42 | -24.14191 | -46.95900 | 22790 ft | 376 kts | 186° |
| 2026-05-05 09:43 | -24.16812 | -46.96179 | 23311 ft | 381 kts | 186° |
| 2026-05-05 09:43 | -24.19473 | -46.96462 | 23825 ft | 385 kts | 186° |
| 2026-05-05 09:43 | -24.22133 | -46.96746 | 24378 ft | 388 kts | 187° |
| 2026-05-05 09:43 | -24.24837 | -46.97035 | 24937 ft | 391 kts | 187° |
| 2026-05-05 09:44 | -24.27560 | -46.97326 | 25471 ft | 394 kts | 187° |
| 2026-05-05 09:44 | -24.30296 | -46.97619 | 26137 ft | 393 kts | 187° |
| 2026-05-05 09:44 | -24.33011 | -46.97907 | 26956 ft | 388 kts | 188° |
| 2026-05-05 09:44 | -24.35703 | -46.98195 | 27599 ft | 387 kts | 188° |
| 2026-05-05 09:45 | -24.38350 | -46.98477 | 28218 ft | 386 kts | 188° |
| 2026-05-05 09:45 | -24.41019 | -46.98763 | 28827 ft | 384 kts | 189° |
| 2026-05-05 09:45 | -24.43658 | -46.99046 | 29484 ft | 381 kts | 189° |
| 2026-05-05 09:45 | -24.46316 | -46.99330 | 30029 ft | 380 kts | 189° |
| 2026-05-05 09:46 | -24.48946 | -46.99614 | 30139 ft | 383 kts | 189° |
| 2026-05-05 09:46 | -24.51594 | -46.99900 | 30134 ft | 380 kts | 189° |
| 2026-05-05 09:46 | -24.56834 | -47.00473 | 30128 ft | 377 kts | 191° |
| 2026-05-05 09:47 | -24.61880 | -47.01920 | 30128 ft | 371 kts | 207° |
| 2026-05-05 09:47 | -24.66331 | -47.04680 | 30126 ft | 368 kts | 215° |
| 2026-05-05 09:48 | -24.70638 | -47.07771 | 30128 ft | 369 kts | 216° |
| 2026-05-05 09:48 | -24.74914 | -47.10860 | 30119 ft | 369 kts | 215° |
| 2026-05-05 09:49 | -24.79218 | -47.13945 | 30125 ft | 370 kts | 215° |
| 2026-05-05 09:49 | -24.83552 | -47.17033 | 30120 ft | 368 kts | 215° |
| 2026-05-05 09:50 | -24.87836 | -47.20081 | 30122 ft | 369 kts | 215° |
| 2026-05-05 09:50 | -24.92157 | -47.23156 | 30121 ft | 369 kts | 215° |
| 2026-05-05 09:51 | -24.96458 | -47.26220 | 30117 ft | 367 kts | 215° |
| 2026-05-05 09:51 | -25.00731 | -47.29266 | 30117 ft | 368 kts | 215° |
| 2026-05-05 09:52 | -25.05025 | -47.32330 | 30120 ft | 368 kts | 215° |
| 2026-05-05 09:52 | -25.09337 | -47.35409 | 30117 ft | 367 kts | 215° |
| 2026-05-05 09:53 | -25.13625 | -47.38475 | 30120 ft | 368 kts | 215° |
| 2026-05-05 09:53 | -25.17913 | -47.41542 | 30117 ft | 368 kts | 215° |
| 2026-05-05 09:54 | -25.22227 | -47.44630 | 30119 ft | 368 kts | 215° |
| 2026-05-05 09:54 | -25.26508 | -47.47699 | 30117 ft | 368 kts | 215° |
| 2026-05-05 09:55 | -25.30793 | -47.50776 | 30118 ft | 368 kts | 215° |
| 2026-05-05 09:55 | -25.35105 | -47.53875 | 30120 ft | 368 kts | 215° |
| 2026-05-05 09:56 | -25.39377 | -47.56948 | 30119 ft | 368 kts | 215° |
| 2026-05-05 09:56 | -25.43667 | -47.60034 | 30119 ft | 367 kts | 215° |
| 2026-05-05 09:57 | -25.47971 | -47.63135 | 30118 ft | 367 kts | 215° |
| 2026-05-05 09:57 | -25.52248 | -47.66218 | 30118 ft | 367 kts | 216° |
| 2026-05-05 09:58 | -25.56512 | -47.69295 | 30119 ft | 366 kts | 216° |
| 2026-05-05 09:58 | -25.60786 | -47.72381 | 30117 ft | 366 kts | 216° |
| 2026-05-05 09:59 | -25.65071 | -47.75480 | 30116 ft | 367 kts | 216° |
| 2026-05-05 09:59 | -25.69327 | -47.78558 | 30116 ft | 367 kts | 216° |
| 2026-05-05 10:00 | -25.73605 | -47.81655 | 30113 ft | 367 kts | 216° |
| 2026-05-05 10:00 | -25.77900 | -47.84768 | 30116 ft | 368 kts | 216° |
| 2026-05-05 10:01 | -25.82175 | -47.87867 | 30117 ft | 367 kts | 216° |
| 2026-05-05 10:01 | -25.86449 | -47.90970 | 30114 ft | 367 kts | 216° |
| 2026-05-05 10:02 | -25.90740 | -47.94089 | 30113 ft | 367 kts | 216° |
| 2026-05-05 10:02 | -25.94998 | -47.97185 | 30117 ft | 366 kts | 216° |
| 2026-05-05 10:03 | -25.99253 | -48.00281 | 30110 ft | 365 kts | 216° |
| 2026-05-05 10:03 | -26.03659 | -48.03167 | 30112 ft | 367 kts | 207° |
| 2026-05-05 10:04 | -26.08529 | -48.05067 | 30121 ft | 373 kts | 200° |
| 2026-05-05 10:04 | -26.13557 | -48.06595 | 30112 ft | 374 kts | 199° |
| 2026-05-05 10:05 | -26.18594 | -48.08107 | 30119 ft | 373 kts | 199° |
| 2026-05-05 10:05 | -26.23601 | -48.09651 | 30119 ft | 373 kts | 200° |
| 2026-05-05 10:06 | -26.28576 | -48.11210 | 30114 ft | 372 kts | 200° |
| 2026-05-05 10:06 | -26.33566 | -48.12785 | 30115 ft | 371 kts | 200° |
| 2026-05-05 10:07 | -26.36034 | -48.13565 | 30014 ft | 370 kts | 200° |
| 2026-05-05 10:07 | -26.38508 | -48.14347 | 29601 ft | 366 kts | 200° |
| 2026-05-05 10:07 | -26.40945 | -48.15118 | 29057 ft | 365 kts | 200° |
| 2026-05-05 10:07 | -26.43393 | -48.15895 | 28436 ft | 366 kts | 200° |
| 2026-05-05 10:08 | -26.45826 | -48.16668 | 27798 ft | 367 kts | 199° |
| 2026-05-05 10:08 | -26.48301 | -48.17455 | 27130 ft | 368 kts | 199° |
| 2026-05-05 10:08 | -26.50768 | -48.18240 | 26440 ft | 370 kts | 199° |
| 2026-05-05 10:08 | -26.53232 | -48.19024 | 25741 ft | 372 kts | 199° |
| 2026-05-05 10:09 | -26.55734 | -48.19820 | 25028 ft | 373 kts | 199° |
| 2026-05-05 10:09 | -26.58210 | -48.20607 | 24608 ft | 378 kts | 198° |
| 2026-05-05 10:09 | -26.60778 | -48.21426 | 24117 ft | 387 kts | 198° |
| 2026-05-05 10:09 | -26.63389 | -48.22257 | 23592 ft | 384 kts | 198° |
| 2026-05-05 10:10 | -26.65941 | -48.23067 | 23085 ft | 379 kts | 198° |
| 2026-05-05 10:10 | -26.68459 | -48.23867 | 22586 ft | 375 kts | 198° |
| 2026-05-05 10:10 | -26.70965 | -48.24663 | 22088 ft | 372 kts | 198° |
| 2026-05-05 10:10 | -26.73410 | -48.25440 | 21595 ft | 369 kts | 198° |
| 2026-05-05 10:11 | -26.75872 | -48.26224 | 21091 ft | 365 kts | 198° |
| 2026-05-05 10:11 | -26.78306 | -48.27000 | 20590 ft | 362 kts | 198° |
| 2026-05-05 10:11 | -26.80714 | -48.27769 | 20096 ft | 359 kts | 198° |
| 2026-05-05 10:11 | -26.83132 | -48.28542 | 19583 ft | 356 kts | 198° |
| 2026-05-05 10:12 | -26.85498 | -48.29298 | 19089 ft | 353 kts | 198° |
| 2026-05-05 10:12 | -26.87849 | -48.30049 | 18590 ft | 351 kts | 198° |
| 2026-05-05 10:12 | -26.90179 | -48.30796 | 18086 ft | 348 kts | 198° |
| 2026-05-05 10:12 | -26.92485 | -48.31535 | 17588 ft | 345 kts | 198° |
| 2026-05-05 10:13 | -26.94812 | -48.32282 | 17097 ft | 347 kts | 198° |
| 2026-05-05 10:13 | -26.97149 | -48.33032 | 16609 ft | 350 kts | 198° |
| 2026-05-05 10:13 | -26.99470 | -48.33772 | 16103 ft | 348 kts | 197° |
| 2026-05-05 10:13 | -27.01811 | -48.34424 | 15587 ft | 346 kts | 193° |
| 2026-05-05 10:14 | -27.04182 | -48.34790 | 15107 ft | 344 kts | 186° |
| 2026-05-05 10:14 | -27.06604 | -48.34842 | 14599 ft | 343 kts | 181° |
| 2026-05-05 10:14 | -27.08966 | -48.34728 | 14110 ft | 342 kts | 178° |
| 2026-05-05 10:14 | -27.11347 | -48.34551 | 13599 ft | 340 kts | 178° |
| 2026-05-05 10:15 | -27.13685 | -48.34370 | 13116 ft | 337 kts | 178° |
| 2026-05-05 10:15 | -27.16022 | -48.34202 | 12635 ft | 335 kts | 178° |
| 2026-05-05 10:15 | -27.18351 | -48.34051 | 12150 ft | 334 kts | 179° |
| 2026-05-05 10:15 | -27.20659 | -48.33913 | 11670 ft | 332 kts | 179° |
| 2026-05-05 10:16 | -27.22959 | -48.33780 | 11184 ft | 330 kts | 179° |
| 2026-05-05 10:16 | -27.25243 | -48.33650 | 10735 ft | 327 kts | 179° |
| 2026-05-05 10:16 | -27.27483 | -48.33521 | 10483 ft | 318 kts | 179° |
| 2026-05-05 10:16 | -27.29656 | -48.33393 | 10373 ft | 304 kts | 179° |
| 2026-05-05 10:17 | -27.31722 | -48.33271 | 10268 ft | 292 kts | 179° |
| 2026-05-05 10:17 | -27.33730 | -48.33155 | 10045 ft | 285 kts | 179° |
| 2026-05-05 10:17 | -27.35719 | -48.33042 | 9629 ft | 286 kts | 179° |
| 2026-05-05 10:17 | -27.37696 | -48.32930 | 9250 ft | 285 kts | 179° |
| 2026-05-05 10:18 | -27.39699 | -48.32816 | 8870 ft | 284 kts | 179° |
| 2026-05-05 10:18 | -27.41661 | -48.32703 | 8502 ft | 282 kts | 179° |
| 2026-05-05 10:18 | -27.43627 | -48.32590 | 8134 ft | 281 kts | 179° |
| 2026-05-05 10:18 | -27.45561 | -48.32478 | 7770 ft | 279 kts | 179° |
| 2026-05-05 10:19 | -27.47522 | -48.32365 | 7404 ft | 278 kts | 179° |
| 2026-05-05 10:19 | -27.49429 | -48.32255 | 7059 ft | 276 kts | 179° |
| 2026-05-05 10:19 | -27.51339 | -48.32144 | 6847 ft | 269 kts | 179° |
| 2026-05-05 10:19 | -27.53192 | -48.32037 | 6498 ft | 267 kts | 179° |
| 2026-05-05 10:20 | -27.55050 | -48.31930 | 6156 ft | 266 kts | 179° |
| 2026-05-05 10:20 | -27.56893 | -48.31824 | 5790 ft | 266 kts | 179° |
| 2026-05-05 10:20 | -27.58758 | -48.31717 | 5434 ft | 265 kts | 179° |
| 2026-05-05 10:20 | -27.60605 | -48.31611 | 5063 ft | 265 kts | 179° |
| 2026-05-05 10:21 | -27.62437 | -48.31504 | 4827 ft | 259 kts | 179° |
| 2026-05-05 10:21 | -27.64198 | -48.31401 | 4668 ft | 251 kts | 179° |
| 2026-05-05 10:21 | -27.65926 | -48.31300 | 4510 ft | 244 kts | 179° |
| 2026-05-05 10:21 | -27.67610 | -48.31334 | 4323 ft | 237 kts | 190° |
| 2026-05-05 10:22 | -27.69147 | -48.31936 | 3940 ft | 237 kts | 212° |
| 2026-05-05 10:22 | -27.70540 | -48.32969 | 3557 ft | 240 kts | 216° |
| 2026-05-05 10:22 | -27.71911 | -48.34015 | 3234 ft | 240 kts | 214° |
| 2026-05-05 10:22 | -27.73325 | -48.35034 | 2947 ft | 239 kts | 216° |
| 2026-05-05 10:23 | -27.74592 | -48.36181 | 2785 ft | 229 kts | 230° |
| 2026-05-05 10:23 | -27.75261 | -48.37728 | 2625 ft | 211 kts | 266° |
| 2026-05-05 10:23 | -27.75051 | -48.39283 | 2462 ft | 196 kts | 295° |
| 2026-05-05 10:23 | -27.74400 | -48.40589 | 2286 ft | 187 kts | 304° |
| 2026-05-05 10:24 | -27.73729 | -48.41810 | 2095 ft | 182 kts | 303° |
| 2026-05-05 10:24 | -27.73084 | -48.43019 | 1916 ft | 174 kts | 303° |
| 2026-05-05 10:24 | -27.72484 | -48.44143 | 1752 ft | 160 kts | 304° |
| 2026-05-05 10:24 | -27.71903 | -48.45217 | 1635 ft | 160 kts | 304° |
| 2026-05-05 10:25 | -27.71337 | -48.46271 | 1631 ft | 150 kts | 304° |
| 2026-05-05 10:25 | -27.70829 | -48.47266 | 1488 ft | 144 kts | 303° |
| 2026-05-05 10:25 | -27.70319 | -48.48240 | 1228 ft | 147 kts | 304° |
| 2026-05-05 10:25 | -27.69783 | -48.49212 | 1054 ft | 142 kts | 306° |
| 2026-05-05 10:26 | -27.69261 | -48.50133 | 799 ft | 137 kts | 305° |
| 2026-05-05 10:26 | -27.68769 | -48.51066 | 576 ft | 139 kts | 304° |
| 2026-05-05 10:26 | -27.68259 | -48.51990 | 359 ft | 139 kts | 304° |
| 2026-05-05 10:26 | -27.67752 | -48.52919 | 118 ft | 138 kts | 304° |
| 2026-05-05 10:27 | -27.67259 | -48.53831 | 28 ft | 129 kts | 303° |
| 2026-05-05 10:27 | -27.66915 | -48.54470 | 27 ft | 60 kts | 301° |
| 2026-05-05 10:27 | -27.66761 | -48.54754 | 28 ft | 25 kts | 301° |
| 2026-05-05 10:27 | -27.66671 | -48.54919 | 27 ft | 23 kts | 300° |
| 2026-05-05 10:28 | -27.66591 | -48.55074 | 29 ft | 20 kts | 287° |
| 2026-05-05 10:28 | -27.66661 | -48.55138 | 30 ft | 16 kts | 166° |
| 2026-05-05 10:28 | -27.66765 | -48.55092 | 29 ft | 16 kts | 138° |
| 2026-05-05 10:28 | -27.66832 | -48.54981 | 28 ft | 17 kts | 120° |
| 2026-05-05 10:29 | -27.66895 | -48.54863 | 27 ft | 17 kts | 121° |
| 2026-05-05 10:29 | -27.66955 | -48.54750 | 27 ft | 16 kts | 121° |
| 2026-05-05 10:29 | -27.67016 | -48.54637 | 27 ft | 16 kts | 121° |
| 2026-05-05 10:29 | -27.67102 | -48.54613 | 27 ft | 14 kts | 204° |
| 2026-05-05 10:30 | -27.67174 | -48.54655 | 27 ft | 6 kts | 158° |
| 2026-05-05 10:30 | -27.67187 | -48.54609 | 27 ft | 6 kts | 108° |
| 2026-05-05 10:30 | -27.67219 | -48.54570 | 27 ft | 9 kts | 163° |
| 2026-05-05 10:30 | -27.67250 | -48.54579 | 27 ft | 1 kts | 211° |